Time;durP1;ratioP1;P1;durP2;ratioP2;P2;SDS_P1;SDS_P2;PMS_P1;PMS_P2;Temp;Humidity;BMP_temperature;BMP_pressure;BME280_temperature;BME280_humidity;BME280_pressure;Samples;Min_cycle;Max_cycle;Signal;HPM_P1;HPM_P2
2021/03/15 00:00:46;;;;;;;21.77;14.87;;;;;;;;;;774285;179;919389;-62
2021/03/15 00:03:12;;;;;;;22.40;14.83;;;;;;;;;;776240;179;929044;-62
2021/03/15 00:05:38;;;;;;;25.13;16.20;;;;;;;;;;775517;177;919043;-63
2021/03/15 00:08:04;;;;;;;31.53;15.40;;;;;;;;;;778299;179;921093;-63
2021/03/15 00:10:30;;;;;;;24.50;15.53;;;;;;;;;;773954;179;917171;-63
2021/03/15 00:12:56;;;;;;;25.33;15.43;;;;;;;;;;781939;179;917194;-62
2021/03/15 00:15:21;;;;;;;24.00;15.57;;;;;;;;;;773358;178;1471685;-62
2021/03/15 00:17:47;;;;;;;27.40;16.00;;;;;;;;;;780398;178;920947;-63
2021/03/15 00:20:14;;;;;;;22.83;14.40;;;;;;;;;;781473;178;916552;-64
2021/03/15 00:22:40;;;;;;;25.93;15.13;;;;;;;;;;782530;178;917405;-62
2021/03/15 00:25:07;;;;;;;25.43;16.23;;;;;;;;;;779214;178;919816;-63
2021/03/15 00:27:33;;;;;;;25.47;15.43;;;;;;;;;;778723;179;919453;-62
2021/03/15 00:29:58;;;;;;;25.90;16.23;;;;;;;;;;780838;178;919564;-62
2021/03/15 00:32:24;;;;;;;25.80;16.30;;;;;;;;;;776713;178;920235;-62
2021/03/15 00:34:50;;;;;;;20.63;15.13;;;;;;;;;;777842;179;917301;-63
2021/03/15 00:37:16;;;;;;;25.37;16.70;;;;;;;;;;782183;179;911579;-62
2021/03/15 00:39:42;;;;;;;21.07;13.70;;;;;;;;;;772982;179;919011;-61
2021/03/15 00:42:08;;;;;;;20.50;13.75;;;;;;;;;;772652;179;941420;-61
2021/03/15 00:44:33;;;;;;;18.83;13.97;;;;;;;;;;782853;179;920075;-62
2021/03/15 00:46:59;;;;;;;24.70;15.98;;;;;;;;;;774745;179;919361;-62
2021/03/15 00:49:25;;;;;;;23.33;13.17;;;;;;;;;;776507;179;919292;-62
2021/03/15 00:51:51;;;;;;;18.37;13.33;;;;;;;;;;780314;179;918872;-62
2021/03/15 00:54:17;;;;;;;28.93;14.87;;;;;;;;;;780354;179;914848;-61
2021/03/15 00:56:43;;;;;;;19.70;13.30;;;;;;;;;;775217;179;915598;-62
2021/03/15 00:59:09;;;;;;;20.60;14.38;;;;;;;;;;784053;179;914949;-61
2021/03/15 01:01:35;;;;;;;22.10;14.00;;;;;;;;;;776183;179;916476;-62
2021/03/15 01:04:00;;;;;;;24.70;13.27;;;;;;;;;;773280;179;955652;-66
2021/03/15 01:06:26;;;;;;;22.90;13.60;;;;;;;;;;775576;179;1014058;-61
2021/03/15 01:08:52;;;;;;;24.90;14.27;;;;;;;;;;781065;179;915564;-62
2021/03/15 01:11:18;;;;;;;21.57;13.30;;;;;;;;;;780683;179;912523;-64
2021/03/15 01:13:44;;;;;;;23.00;14.47;;;;;;;;;;774526;179;919058;-60
2021/03/15 01:16:10;;;;;;;20.27;13.93;;;;;;;;;;783354;179;919766;-62
2021/03/15 01:18:36;;;;;;;22.13;14.00;;;;;;;;;;775772;179;919710;-62
2021/03/15 01:21:02;;;;;;;27.17;14.43;;;;;;;;;;779737;179;919739;-62
2021/03/15 01:23:27;;;;;;;20.27;13.43;;;;;;;;;;779994;179;976584;-62
2021/03/15 01:25:53;;;;;;;21.77;14.30;;;;;;;;;;778527;176;920029;-62
2021/03/15 01:28:19;;;;;;;19.77;12.90;;;;;;;;;;776933;178;914687;-62
2021/03/15 01:30:45;;;;;;;20.02;13.70;;;;;;;;;;783335;179;919121;-61
2021/03/15 01:33:11;;;;;;;26.10;15.67;;;;;;;;;;773387;178;920400;-62
2021/03/15 01:35:37;;;;;;;22.70;13.83;;;;;;;;;;779877;178;924879;-62
2021/03/15 01:38:03;;;;;;;19.77;13.23;;;;;;;;;;779383;178;920140;-62
2021/03/15 01:40:28;;;;;;;24.40;13.93;;;;;;;;;;781839;178;921205;-62
2021/03/15 01:42:54;;;;;;;22.90;15.00;;;;;;;;;;780732;178;920033;-62
2021/03/15 01:45:20;;;;;;;23.70;13.50;;;;;;;;;;774324;178;1464176;-61
2021/03/15 01:47:46;;;;;;;23.10;13.30;;;;;;;;;;783313;179;917047;-62
2021/03/15 01:50:12;;;;;;;21.60;13.77;;;;;;;;;;773620;179;919782;-61
2021/03/15 01:52:38;;;;;;;26.47;15.30;;;;;;;;;;777632;179;924818;-62
2021/03/15 01:55:04;;;;;;;23.17;14.80;;;;;;;;;;778855;179;918927;-62
2021/03/15 01:57:29;;;;;;;22.47;14.60;;;;;;;;;;780535;179;929108;-62
2021/03/15 01:59:55;;;;;;;22.77;14.60;;;;;;;;;;777672;179;920939;-62
2021/03/15 02:02:21;;;;;;;20.35;13.90;;;;;;;;;;783501;179;928478;-62
2021/03/15 02:04:47;;;;;;;27.43;16.60;;;;;;;;;;770886;179;919918;-62
2021/03/15 02:07:13;;;;;;;22.07;14.33;;;;;;;;;;762784;179;919675;-61
2021/03/15 02:09:39;;;;;;;24.77;16.03;;;;;;;;;;772186;179;920295;-61
2021/03/15 02:12:08;;;;;;;24.50;14.83;;;;;;;;;;779846;179;1295424;-61
2021/03/15 02:14:41;;;;;;;24.53;14.60;;;;;;;;;;773841;179;919025;-66
2021/03/15 02:17:13;;;;;;;24.70;14.57;;;;;;;;;;780472;179;918816;-62
2021/03/15 02:19:54;;;;;;;24.37;15.77;;;;;;;;;;778065;179;920261;-61
2021/03/15 02:22:31;;;;;;;23.80;15.63;;;;;;;;;;764558;180;920659;-60
2021/03/15 02:25:13;;;;;;;21.84;13.96;;;;;;;;;;761937;180;2457415;-62
2021/03/15 02:27:45;;;;;;;25.17;14.43;;;;;;;;;;763332;179;919150;-62
2021/03/15 02:30:15;;;;;;;27.40;15.67;;;;;;;;;;773991;179;919638;-61
2021/03/15 02:32:43;;;;;;;26.03;15.30;;;;;;;;;;775241;179;919385;-62
2021/03/15 02:35:09;;;;;;;29.33;15.70;;;;;;;;;;776130;179;918636;-62
2021/03/15 02:37:35;;;;;;;23.17;15.20;;;;;;;;;;765588;182;1021608;-62
2021/03/15 02:40:02;;;;;;;23.07;14.40;;;;;;;;;;772090;179;919224;-61
2021/03/15 02:42:28;;;;;;;23.67;14.30;;;;;;;;;;777343;178;920071;-63
2021/03/15 02:44:54;;;;;;;26.90;18.30;;;;;;;;;;775214;179;918643;-62
2021/03/15 02:47:20;;;;;;;29.70;17.63;;;;;;;;;;777284;178;1327943;-63
2021/03/15 02:49:46;;;;;;;25.23;16.70;;;;;;;;;;773850;178;1919979;-63
2021/03/15 02:52:12;;;;;;;29.87;15.77;;;;;;;;;;776159;178;919787;-63
2021/03/15 02:54:38;;;;;;;29.13;17.90;;;;;;;;;;778646;178;919035;-63
2021/03/15 02:57:04;;;;;;;32.90;16.77;;;;;;;;;;773958;179;919355;-64
2021/03/15 02:59:30;;;;;;;28.40;17.07;;;;;;;;;;776717;179;919571;-63
2021/03/15 03:01:56;;;;;;;23.97;15.37;;;;;;;;;;779025;179;920359;-61
2021/03/15 03:04:22;;;;;;;27.27;16.27;;;;;;;;;;776023;179;919953;-62
2021/03/15 03:06:48;;;;;;;26.13;16.40;;;;;;;;;;772818;179;918422;-63
2021/03/15 03:09:13;;;;;;;26.60;16.93;;;;;;;;;;777917;179;920244;-62
2021/03/15 03:11:39;;;;;;;28.63;17.77;;;;;;;;;;779856;179;918959;-62
2021/03/15 03:14:06;;;;;;;27.27;16.50;;;;;;;;;;775229;179;972453;-63
2021/03/15 03:16:31;;;;;;;28.45;15.98;;;;;;;;;;777307;179;919284;-62
2021/03/15 03:18:57;;;;;;;22.83;15.23;;;;;;;;;;779830;179;910558;-62
2021/03/15 03:21:23;;;;;;;28.00;16.33;;;;;;;;;;779581;179;920262;-60
2021/03/15 03:23:48;;;;;;;30.25;16.65;;;;;;;;;;775277;179;918879;-61
2021/03/15 03:26:14;;;;;;;36.33;16.73;;;;;;;;;;783024;179;918443;-62
2021/03/15 03:28:40;;;;;;;23.60;16.53;;;;;;;;;;775856;179;918460;-63
2021/03/15 03:31:06;;;;;;;30.83;17.77;;;;;;;;;;776549;179;919804;-63
2021/03/15 03:33:32;;;;;;;32.40;17.90;;;;;;;;;;780296;179;1004951;-62
2021/03/15 03:35:58;;;;;;;27.93;16.97;;;;;;;;;;779974;179;918073;-63
2021/03/15 03:38:24;;;;;;;28.03;17.60;;;;;;;;;;775684;179;919437;-62
2021/03/15 03:40:49;;;;;;;25.50;16.50;;;;;;;;;;777908;179;919965;-62
2021/03/15 03:43:15;;;;;;;28.37;15.90;;;;;;;;;;776058;179;919912;-61
2021/03/15 03:45:41;;;;;;;27.07;18.40;;;;;;;;;;778061;179;919497;-61
2021/03/15 03:48:11;;;;;;;30.85;16.40;;;;;;;;;;777545;179;920015;-62
2021/03/15 03:50:37;;;;;;;24.77;16.87;;;;;;;;;;784900;178;920026;-62
2021/03/15 03:53:07;;;;;;;30.60;18.15;;;;;;;;;;779450;178;923071;-62
2021/03/15 03:55:32;;;;;;;31.47;17.60;;;;;;;;;;769087;178;2138699;-64
2021/03/15 03:57:58;;;;;;;30.17;16.60;;;;;;;;;;777955;179;919596;-62
2021/03/15 04:00:24;;;;;;;30.37;18.35;;;;;;;;;;773926;176;920009;-64
2021/03/15 04:02:51;;;;;;;28.13;17.20;;;;;;;;;;771158;178;2331476;-62
2021/03/15 04:05:18;;;;;;;27.20;16.03;;;;;;;;;;775680;178;919404;-63
2021/03/15 04:07:44;;;;;;;25.37;15.53;;;;;;;;;;781922;178;919142;-62
2021/03/15 04:10:10;;;;;;;27.93;16.93;;;;;;;;;;776190;179;919131;-64
2021/03/15 04:12:35;;;;;;;27.70;17.07;;;;;;;;;;775314;179;919636;-64
2021/03/15 04:15:01;;;;;;;34.70;17.43;;;;;;;;;;765035;179;2698975;-64
2021/03/15 04:17:27;;;;;;;24.57;15.50;;;;;;;;;;772661;179;920230;-64
2021/03/15 04:19:55;;;;;;;26.37;17.57;;;;;;;;;;774678;179;919262;-64
2021/03/15 04:22:21;;;;;;;31.40;17.80;;;;;;;;;;776290;179;918950;-64
2021/03/15 04:24:46;;;;;;;27.27;17.07;;;;;;;;;;766698;182;918767;-63
2021/03/15 04:27:12;;;;;;;26.07;16.20;;;;;;;;;;778205;179;920657;-63
2021/03/15 04:29:38;;;;;;;28.90;16.62;;;;;;;;;;779220;179;919477;-64
2021/03/15 04:32:04;;;;;;;31.33;16.90;;;;;;;;;;781265;179;903006;-63
2021/03/15 04:34:30;;;;;;;32.20;17.65;;;;;;;;;;777672;179;923854;-65
2021/03/15 04:36:56;;;;;;;32.00;18.93;;;;;;;;;;772070;179;1667094;-62
2021/03/15 04:39:22;;;;;;;34.47;19.33;;;;;;;;;;782036;179;913987;-63
2021/03/15 04:41:48;;;;;;;24.93;16.63;;;;;;;;;;775400;179;913892;-63
2021/03/15 04:44:14;;;;;;;29.33;18.63;;;;;;;;;;774964;179;932839;-62
2021/03/15 04:46:39;;;;;;;30.70;16.90;;;;;;;;;;774817;179;917022;-64
2021/03/15 04:49:07;;;;;;;29.37;17.40;;;;;;;;;;777985;179;926511;-64
2021/03/15 04:51:31;;;;;;;30.07;18.40;;;;;;;;;;776721;179;910790;-64
2021/03/15 04:53:57;;;;;;;30.57;17.67;;;;;;;;;;777349;179;937079;-64
2021/03/15 04:56:23;;;;;;;26.27;16.53;;;;;;;;;;768531;179;1697321;-64
2021/03/15 04:58:49;;;;;;;33.13;18.40;;;;;;;;;;778065;179;919824;-63
2021/03/15 05:01:15;;;;;;;39.97;20.67;;;;;;;;;;773475;177;919874;-64
2021/03/15 05:03:40;;;;;;;28.67;17.47;;;;;;;;;;785580;178;920406;-64
2021/03/15 05:06:06;;;;;;;31.48;18.55;;;;;;;;;;781586;178;918715;-62
2021/03/15 05:08:32;;;;;;;31.60;16.23;;;;;;;;;;779687;178;623537;-64
2021/03/15 05:10:58;;;;;;;32.60;18.10;;;;;;;;;;786132;178;917465;-64
2021/03/15 05:13:24;;;;;;;32.80;18.60;;;;;;;;;;775517;178;919651;-63
2021/03/15 05:15:50;;;;;;;33.10;19.65;;;;;;;;;;777889;178;1149974;-64
2021/03/15 05:18:15;;;;;;;31.23;17.70;;;;;;;;;;780656;178;916590;-64
2021/03/15 05:20:41;;;;;;;32.27;17.47;;;;;;;;;;779405;179;919009;-64
2021/03/15 05:23:07;;;;;;;34.42;20.33;;;;;;;;;;773296;179;1005665;-64
2021/03/15 05:25:33;;;;;;;33.57;18.37;;;;;;;;;;777847;179;919808;-64
2021/03/15 05:27:59;;;;;;;28.73;19.33;;;;;;;;;;768580;179;919112;-64
2021/03/15 05:30:25;;;;;;;32.53;18.37;;;;;;;;;;778126;179;930034;-65
2021/03/15 05:32:50;;;;;;;27.67;16.23;;;;;;;;;;775009;179;919108;-63
2021/03/15 05:35:16;;;;;;;24.03;16.70;;;;;;;;;;783017;179;919107;-63
2021/03/15 05:37:43;;;;;;;30.65;18.17;;;;;;;;;;776456;179;933184;-64
2021/03/15 05:40:10;;;;;;;31.85;18.33;;;;;;;;;;778319;179;919225;-64
2021/03/15 05:42:37;;;;;;;23.90;15.50;;;;;;;;;;777728;179;919425;-62
2021/03/15 05:45:10;;;;;;;35.10;16.70;;;;;;;;;;775027;179;1104997;-61
2021/03/15 05:47:48;;;;;;;31.63;17.60;;;;;;;;;;778221;179;918767;-64
2021/03/15 05:50:14;;;;;;;28.33;17.73;;;;;;;;;;775489;179;919822;-63
2021/03/15 05:52:55;;;;;;;26.10;15.10;;;;;;;;;;775250;179;918818;-63
2021/03/15 05:55:21;;;;;;;30.70;16.40;;;;;;;;;;771501;179;919659;-62
2021/03/15 05:57:47;;;;;;;34.70;19.98;;;;;;;;;;778339;176;918326;-64
2021/03/15 06:00:28;;;;;;;37.00;20.13;;;;;;;;;;773156;179;919440;-65
2021/03/15 06:02:59;;;;;;;30.33;17.20;;;;;;;;;;779822;179;626137;-67
2021/03/15 06:05:25;;;;;;;31.17;17.53;;;;;;;;;;779993;179;646097;-67
2021/03/15 06:07:51;;;;;;;40.80;19.87;;;;;;;;;;784948;179;617703;-67
2021/03/15 06:10:19;;;;;;;41.47;22.03;;;;;;;;;;776613;179;919290;-66
2021/03/15 06:12:47;;;;;;;34.43;19.50;;;;;;;;;;778040;179;923800;-66
2021/03/15 06:15:13;;;;;;;39.90;20.67;;;;;;;;;;774484;178;918365;-66
2021/03/15 06:17:39;;;;;;;37.30;21.73;;;;;;;;;;776878;176;918436;-66
2021/03/15 06:20:06;;;;;;;37.47;19.90;;;;;;;;;;774919;179;943279;-65
2021/03/15 06:22:31;;;;;;;34.57;17.87;;;;;;;;;;778469;178;919083;-66
2021/03/15 06:24:57;;;;;;;43.57;19.83;;;;;;;;;;783393;178;918133;-65
2021/03/15 06:27:23;;;;;;;37.90;18.77;;;;;;;;;;773131;179;919473;-64
2021/03/15 06:29:49;;;;;;;43.17;22.27;;;;;;;;;;774263;178;945641;-67
2021/03/15 06:32:15;;;;;;;33.23;19.73;;;;;;;;;;782245;179;918499;-66
2021/03/15 06:34:41;;;;;;;32.67;20.58;;;;;;;;;;775300;179;919728;-67
2021/03/15 06:37:07;;;;;;;32.67;18.50;;;;;;;;;;778751;179;926394;-66
2021/03/15 06:39:33;;;;;;;28.10;17.90;;;;;;;;;;782750;179;918719;-66
2021/03/15 06:41:59;;;;;;;28.60;17.20;;;;;;;;;;775131;179;918326;-66
2021/03/15 06:44:24;;;;;;;37.83;17.27;;;;;;;;;;778861;179;919618;-66
2021/03/15 06:46:50;;;;;;;29.90;17.83;;;;;;;;;;767838;179;1035376;-65
2021/03/15 06:49:16;;;;;;;26.75;16.20;;;;;;;;;;779261;179;919678;-66
2021/03/15 06:51:49;;;;;;;28.30;16.70;;;;;;;;;;774548;179;919021;-66
2021/03/15 06:54:15;;;;;;;28.20;16.43;;;;;;;;;;776748;179;919022;-66
2021/03/15 06:56:40;;;;;;;28.43;17.27;;;;;;;;;;779715;179;919115;-65
2021/03/15 06:59:07;;;;;;;37.60;20.70;;;;;;;;;;778785;179;919846;-66
2021/03/15 07:01:54;;;;;;;28.67;17.50;;;;;;;;;;768489;179;2111426;-65
2021/03/15 07:04:20;;;;;;;33.07;18.00;;;;;;;;;;777592;179;919526;-67
2021/03/15 09:51:03;;;;;;;10.97;6.90;;;;;;;;;;777466;179;916995;-65
2021/03/15 09:53:31;;;;;;;6.90;4.77;;;;;;;;;;777381;178;918293;-65
2021/03/15 09:56:02;;;;;;;8.87;4.23;;;;;;;;;;779095;178;919225;-67
2021/03/15 09:58:28;;;;;;;16.30;8.53;;;;;;;;;;776962;178;918988;-65
2021/03/15 10:00:54;;;;;;;7.47;5.37;;;;;;;;;;780823;178;1015447;-66
2021/03/15 10:03:19;;;;;;;7.73;6.37;;;;;;;;;;775821;178;919706;-66
2021/03/15 10:05:45;;;;;;;11.13;4.73;;;;;;;;;;778199;179;919347;-66
2021/03/15 10:08:11;;;;;;;12.37;8.90;;;;;;;;;;780962;179;919374;-66
2021/03/15 10:10:37;;;;;;;4.80;3.67;;;;;;;;;;776603;179;920339;-66
2021/03/15 10:13:04;;;;;;;5.73;4.00;;;;;;;;;;775568;179;919333;-67
2021/03/15 10:15:30;;;;;;;8.10;4.30;;;;;;;;;;781473;179;919316;-65
2021/03/15 10:17:56;;;;;;;10.57;5.43;;;;;;;;;;779043;179;919028;-65
2021/03/15 10:20:23;;;;;;;6.93;4.73;;;;;;;;;;774703;179;1073915;-66
2021/03/15 10:22:48;;;;;;;7.57;4.97;;;;;;;;;;777216;179;919964;-65
2021/03/15 10:25:14;;;;;;;8.13;4.70;;;;;;;;;;781514;175;919994;-65
2021/03/15 10:27:40;;;;;;;5.23;3.77;;;;;;;;;;769425;179;2316077;-66
2021/03/15 10:30:06;;;;;;;5.67;3.77;;;;;;;;;;773817;179;917146;-64
2021/03/15 10:32:32;;;;;;;4.47;3.33;;;;;;;;;;782789;179;919701;-64
2021/03/15 10:34:58;;;;;;;8.40;5.27;;;;;;;;;;774943;179;922036;-65
2021/03/15 10:37:24;;;;;;;7.60;5.23;;;;;;;;;;779123;179;919965;-65
2021/03/15 10:39:50;;;;;;;10.33;5.97;;;;;;;;;;756641;179;5307880;-65
2021/03/15 10:42:16;;;;;;;9.23;6.07;;;;;;;;;;772048;179;919811;-65
2021/03/15 10:44:42;;;;;;;13.77;5.80;;;;;;;;;;773770;179;919333;-65
2021/03/15 10:47:10;;;;;;;8.30;5.10;;;;;;;;;;781920;179;919412;-65
2021/03/15 10:49:35;;;;;;;16.20;9.00;;;;;;;;;;776564;179;919417;-70
2021/03/15 10:52:01;;;;;;;9.63;5.93;;;;;;;;;;772832;179;1840006;-64
2021/03/15 10:54:27;;;;;;;9.17;4.47;;;;;;;;;;777984;179;918087;-65
2021/03/15 10:56:58;;;;;;;8.53;5.17;;;;;;;;;;780482;179;918797;-65
2021/03/15 10:59:30;;;;;;;14.03;7.20;;;;;;;;;;779868;177;915343;-65
2021/03/15 11:01:56;;;;;;;10.97;6.63;;;;;;;;;;771170;178;2223064;-65
2021/03/15 11:04:22;;;;;;;12.90;7.63;;;;;;;;;;773755;178;1828942;-65
2021/03/15 11:06:48;;;;;;;20.70;12.10;;;;;;;;;;781678;178;946651;-64
2021/03/15 11:09:13;;;;;;;20.33;9.20;;;;;;;;;;777886;178;919511;-65
2021/03/15 11:11:39;;;;;;;9.77;6.13;;;;;;;;;;774619;178;919427;-64
2021/03/15 11:14:07;;;;;;;6.80;4.50;;;;;;;;;;782962;179;918725;-65
2021/03/15 11:16:34;;;;;;;11.77;5.63;;;;;;;;;;777159;178;919000;-65
2021/03/15 11:19:16;;;;;;;8.23;4.30;;;;;;;;;;779561;179;919649;-65
2021/03/15 11:21:42;;;;;;;9.00;6.67;;;;;;;;;;774754;179;1021903;-66
2021/03/15 11:24:09;;;;;;;12.47;7.30;;;;;;;;;;782729;179;919557;-66
2021/03/15 11:26:51;;;;;;;9.50;6.47;;;;;;;;;;778921;179;919586;-66
2021/03/15 11:29:17;;;;;;;15.40;12.00;;;;;;;;;;770802;179;919635;-66
2021/03/15 11:31:49;;;;;;;14.40;8.90;;;;;;;;;;775035;179;918866;-65
2021/03/15 11:34:16;;;;;;;10.63;5.37;;;;;;;;;;778269;179;944725;-65
2021/03/15 11:36:42;;;;;;;10.80;6.10;;;;;;;;;;779288;179;920025;-66
2021/03/15 11:39:07;;;;;;;10.73;5.27;;;;;;;;;;777690;179;945445;-66
2021/03/15 11:41:36;;;;;;;6.37;4.77;;;;;;;;;;773201;179;1229537;-67
2021/03/15 11:44:02;;;;;;;31.20;14.33;;;;;;;;;;774003;179;919381;-65
2021/03/15 11:46:28;;;;;;;26.47;11.50;;;;;;;;;;775762;179;920686;-65
2021/03/15 11:48:54;;;;;;;25.07;9.63;;;;;;;;;;773285;179;1149759;-65
2021/03/15 11:51:19;;;;;;;9.13;6.40;;;;;;;;;;773168;179;918907;-65
2021/03/15 11:53:45;;;;;;;61.37;23.73;;;;;;;;;;779935;179;944662;-65
2021/03/15 11:56:11;;;;;;;11.00;6.57;;;;;;;;;;779357;179;1017301;-65
2021/03/15 11:58:37;;;;;;;13.80;7.83;;;;;;;;;;775906;179;913687;-65
2021/03/15 12:01:03;;;;;;;13.07;8.00;;;;;;;;;;781371;179;939801;-65
2021/03/15 12:03:29;;;;;;;79.03;29.17;;;;;;;;;;773244;179;915103;-65
2021/03/15 12:05:55;;;;;;;52.43;22.10;;;;;;;;;;777387;179;920760;-65
2021/03/15 12:08:21;;;;;;;57.23;25.53;;;;;;;;;;781023;179;919671;-65
2021/03/15 12:10:47;;;;;;;44.07;21.03;;;;;;;;;;770525;178;918638;-65
2021/03/15 12:13:13;;;;;;;21.10;10.40;;;;;;;;;;774366;178;918203;-66
2021/03/15 12:15:39;;;;;;;21.13;10.50;;;;;;;;;;777760;179;919612;-65
2021/03/15 12:18:05;;;;;;;12.27;7.70;;;;;;;;;;781069;178;1053497;-64
2021/03/15 12:20:30;;;;;;;18.07;8.80;;;;;;;;;;779416;178;918987;-65
2021/03/15 12:22:56;;;;;;;14.05;7.68;;;;;;;;;;779476;178;920177;-65
2021/03/15 12:25:22;;;;;;;23.53;13.20;;;;;;;;;;780912;178;920384;-66
2021/03/15 12:27:48;;;;;;;15.20;7.77;;;;;;;;;;776134;178;921893;-65
2021/03/15 12:30:14;;;;;;;21.17;12.17;;;;;;;;;;754719;179;3412020;-64
2021/03/15 12:32:40;;;;;;;20.93;13.60;;;;;;;;;;780182;179;945148;-65
2021/03/15 12:35:06;;;;;;;32.50;16.90;;;;;;;;;;777415;179;918517;-65
2021/03/15 12:37:32;;;;;;;22.83;14.03;;;;;;;;;;779330;179;921553;-66
2021/03/15 12:39:58;;;;;;;15.87;9.33;;;;;;;;;;775193;179;921762;-64
2021/03/15 12:42:24;;;;;;;10.70;7.90;;;;;;;;;;771682;182;918458;-66
2021/03/15 12:44:50;;;;;;;16.57;7.20;;;;;;;;;;776622;179;916307;-66
2021/03/15 12:47:16;;;;;;;16.43;9.27;;;;;;;;;;778509;179;948939;-68
2021/03/15 12:49:42;;;;;;;23.17;13.87;;;;;;;;;;780583;179;991416;-65
2021/03/15 12:52:07;;;;;;;17.00;11.47;;;;;;;;;;778957;179;919734;-64
2021/03/15 12:54:34;;;;;;;36.40;19.50;;;;;;;;;;773992;179;1132916;-65
2021/03/15 12:56:59;;;;;;;30.55;17.62;;;;;;;;;;782660;179;920131;-64
2021/03/15 12:59:28;;;;;;;25.00;13.60;;;;;;;;;;776929;179;939445;-65
2021/03/15 13:01:55;;;;;;;19.73;13.90;;;;;;;;;;775741;179;922880;-65
2021/03/15 13:04:21;;;;;;;11.30;8.00;;;;;;;;;;777149;179;916720;-64
2021/03/15 13:06:46;;;;;;;8.73;5.40;;;;;;;;;;771137;180;910899;-65
2021/03/15 13:09:14;;;;;;;8.50;5.10;;;;;;;;;;779075;179;909401;-65
2021/03/15 13:11:40;;;;;;;9.70;5.80;;;;;;;;;;774613;179;918893;-66
2021/03/15 13:14:06;;;;;;;10.33;6.10;;;;;;;;;;783656;179;918767;-65
2021/03/15 13:16:31;;;;;;;8.60;6.60;;;;;;;;;;747543;179;4836092;-65
2021/03/15 13:18:57;;;;;;;12.97;9.30;;;;;;;;;;776832;179;917835;-66
2021/03/15 13:21:23;;;;;;;12.10;6.83;;;;;;;;;;778259;179;918261;-66
2021/03/15 13:23:49;;;;;;;9.73;6.73;;;;;;;;;;780586;178;901640;-66
2021/03/15 13:26:15;;;;;;;11.57;7.50;;;;;;;;;;773444;178;1012253;-65
2021/03/15 13:28:41;;;;;;;38.17;21.73;;;;;;;;;;783728;178;919358;-66
2021/03/15 13:31:08;;;;;;;13.67;8.60;;;;;;;;;;776600;178;947392;-66
2021/03/15 13:33:32;;;;;;;11.10;7.10;;;;;;;;;;774359;178;1952160;-66
2021/03/15 13:35:59;;;;;;;11.67;8.00;;;;;;;;;;773331;178;1288311;-67
2021/03/15 13:38:24;;;;;;;13.03;7.90;;;;;;;;;;784245;178;918915;-66
2021/03/15 13:40:51;;;;;;;12.55;8.25;;;;;;;;;;774980;178;919904;-66
2021/03/15 13:43:16;;;;;;;15.83;9.13;;;;;;;;;;773417;179;920595;-69
2021/03/15 13:45:43;;;;;;;10.60;7.07;;;;;;;;;;780809;179;918844;-66
2021/03/15 13:48:08;;;;;;;15.67;10.33;;;;;;;;;;774089;179;919526;-67
2021/03/15 13:50:34;;;;;;;22.93;13.10;;;;;;;;;;777928;179;919848;-66
2021/03/15 13:53:00;;;;;;;26.43;15.03;;;;;;;;;;780483;179;915966;-66
2021/03/15 13:55:27;;;;;;;14.43;8.87;;;;;;;;;;779035;179;919884;-66
2021/03/15 13:57:52;;;;;;;12.57;8.27;;;;;;;;;;762853;179;2967193;-66
2021/03/15 14:00:19;;;;;;;15.40;8.98;;;;;;;;;;778332;179;920051;-66
2021/03/15 14:02:44;;;;;;;18.70;10.90;;;;;;;;;;777739;175;916046;-66
2021/03/15 14:05:11;;;;;;;15.20;8.40;;;;;;;;;;778958;179;920483;-66
2021/03/15 14:07:37;;;;;;;14.97;8.73;;;;;;;;;;774512;179;916312;-65
2021/03/15 14:10:02;;;;;;;18.03;11.87;;;;;;;;;;779535;179;1631774;-65
2021/03/15 14:12:28;;;;;;;31.83;17.92;;;;;;;;;;773805;179;916775;-66
2021/03/15 14:14:54;;;;;;;26.37;16.40;;;;;;;;;;779468;179;846815;-65
2021/03/15 14:17:20;;;;;;;31.70;18.00;;;;;;;;;;785723;179;628468;-65
2021/03/15 14:19:46;;;;;;;16.73;11.07;;;;;;;;;;774739;179;1417086;-65
2021/03/15 14:22:12;;;;;;;15.80;7.63;;;;;;;;;;776643;179;1018234;-65
2021/03/15 14:24:37;;;;;;;18.97;11.77;;;;;;;;;;779697;179;917023;-65
2021/03/15 14:27:03;;;;;;;45.23;24.60;;;;;;;;;;778728;179;924671;-65
2021/03/15 14:29:29;;;;;;;37.57;19.63;;;;;;;;;;776070;179;917537;-65
2021/03/15 14:31:55;;;;;;;39.73;23.63;;;;;;;;;;777579;179;916131;-65
2021/03/15 14:34:21;;;;;;;53.57;29.37;;;;;;;;;;781849;176;915845;-64
2021/03/15 14:36:47;;;;;;;82.43;31.23;;;;;;;;;;778866;178;915679;-64
2021/03/15 14:39:12;;;;;;;51.75;25.73;;;;;;;;;;776165;178;915738;-65
2021/03/15 14:41:38;;;;;;;27.43;19.20;;;;;;;;;;785158;178;919810;-65
2021/03/15 14:44:05;;;;;;;43.93;23.43;;;;;;;;;;775641;179;954109;-65
2021/03/15 14:46:30;;;;;;;39.67;22.48;;;;;;;;;;778514;179;979075;-66
2021/03/15 14:48:56;;;;;;;31.00;15.50;;;;;;;;;;781558;179;920555;-64
2021/03/15 14:51:23;;;;;;;17.87;10.30;;;;;;;;;;778851;178;914814;-65
2021/03/15 14:53:48;;;;;;;14.07;10.50;;;;;;;;;;777729;179;919396;-65
2021/03/15 14:56:15;;;;;;;26.23;12.98;;;;;;;;;;779871;179;919018;-64
2021/03/15 14:58:41;;;;;;;44.47;20.83;;;;;;;;;;769854;182;919953;-64
2021/03/15 15:01:06;;;;;;;45.27;21.80;;;;;;;;;;775273;179;921628;-66
2021/03/15 15:03:32;;;;;;;15.60;11.03;;;;;;;;;;777448;179;919093;-66
2021/03/15 15:05:58;;;;;;;33.93;18.87;;;;;;;;;;780725;179;919567;-65
2021/03/15 15:08:24;;;;;;;27.27;16.27;;;;;;;;;;778534;179;919303;-66
2021/03/15 15:10:50;;;;;;;49.25;24.35;;;;;;;;;;776085;179;919950;-66
2021/03/15 15:13:16;;;;;;;50.73;24.70;;;;;;;;;;781770;179;1022149;-66
2021/03/15 15:15:42;;;;;;;42.07;20.13;;;;;;;;;;774386;179;918646;-65
2021/03/15 15:18:07;;;;;;;19.35;10.35;;;;;;;;;;776609;179;1021477;-66
2021/03/15 15:20:33;;;;;;;30.53;18.70;;;;;;;;;;779418;179;919439;-66
2021/03/15 15:22:59;;;;;;;11.17;8.13;;;;;;;;;;776045;179;1430013;-65
2021/03/15 15:25:25;;;;;;;16.50;8.40;;;;;;;;;;773711;179;919144;-65
2021/03/15 15:27:54;;;;;;;22.57;11.13;;;;;;;;;;767386;180;919412;-65
2021/03/15 15:30:20;;;;;;;26.07;11.33;;;;;;;;;;766909;182;919285;-66
2021/03/15 15:32:45;;;;;;;28.37;11.60;;;;;;;;;;776211;179;919291;-65
2021/03/15 15:35:11;;;;;;;34.83;17.20;;;;;;;;;;777359;179;918762;-65
2021/03/15 15:37:37;;;;;;;22.10;12.43;;;;;;;;;;780621;179;904759;-65
2021/03/15 15:40:03;;;;;;;32.43;18.67;;;;;;;;;;777235;179;921207;-65
2021/03/15 15:42:29;;;;;;;25.17;11.83;;;;;;;;;;774064;179;923209;-65
2021/03/15 15:44:55;;;;;;;24.48;13.65;;;;;;;;;;782681;179;1089573;-65
2021/03/15 15:47:21;;;;;;;32.00;12.57;;;;;;;;;;771948;178;2196061;-67
2021/03/15 15:49:47;;;;;;;24.70;14.60;;;;;;;;;;779206;178;918751;-65
2021/03/15 15:52:13;;;;;;;21.37;11.83;;;;;;;;;;777300;178;919334;-64
2021/03/15 15:54:38;;;;;;;17.37;10.70;;;;;;;;;;781149;175;914609;-65
2021/03/15 15:57:04;;;;;;;10.50;8.43;;;;;;;;;;776464;178;916257;-65
2021/03/15 15:59:30;;;;;;;15.63;8.20;;;;;;;;;;776051;178;919449;-64
2021/03/15 16:01:56;;;;;;;13.37;8.80;;;;;;;;;;780666;178;919312;-65
2021/03/15 16:04:22;;;;;;;29.07;21.87;;;;;;;;;;777408;179;919623;-64
2021/03/15 16:06:52;;;;;;;15.00;11.20;;;;;;;;;;777402;179;918977;-66
2021/03/15 16:09:18;;;;;;;16.13;13.47;;;;;;;;;;783539;179;919423;-65
2021/03/15 16:11:43;;;;;;;24.73;14.97;;;;;;;;;;778554;179;927208;-64
2021/03/15 16:14:10;;;;;;;21.73;12.40;;;;;;;;;;746788;179;4802592;-66
2021/03/15 16:16:36;;;;;;;17.93;9.77;;;;;;;;;;776648;179;920248;-65
2021/03/15 16:19:02;;;;;;;18.97;11.00;;;;;;;;;;775527;176;924711;-65
2021/03/15 16:21:28;;;;;;;13.30;8.23;;;;;;;;;;778560;179;921747;-65
2021/03/15 16:23:54;;;;;;;17.10;9.38;;;;;;;;;;774817;179;919485;-65
2021/03/15 16:26:20;;;;;;;14.73;10.23;;;;;;;;;;783414;179;915717;-65
2021/03/15 16:28:46;;;;;;;16.15;11.00;;;;;;;;;;772915;179;919725;-67
2021/03/15 16:31:11;;;;;;;14.23;8.20;;;;;;;;;;776169;179;1023321;-65
2021/03/15 16:33:37;;;;;;;16.63;8.20;;;;;;;;;;785429;179;916682;-65
2021/03/15 16:36:03;;;;;;;13.50;8.33;;;;;;;;;;771870;179;921791;-65
2021/03/15 16:38:29;;;;;;;11.63;6.65;;;;;;;;;;771166;179;1766370;-66
2021/03/15 16:40:55;;;;;;;12.80;7.30;;;;;;;;;;782276;179;914721;-66
2021/03/15 16:43:21;;;;;;;11.73;7.33;;;;;;;;;;776803;179;919560;-66
2021/03/15 16:45:48;;;;;;;11.93;7.73;;;;;;;;;;778468;179;919550;-64